createdAt,value
2023-08-17T00:00:15.287Z,17.70
2023-08-17T00:02:43.664Z,17.70
2023-08-17T00:05:11.929Z,17.60
2023-08-17T00:07:41.462Z,17.70
2023-08-17T00:10:10.264Z,17.60
2023-08-17T00:12:38.467Z,17.60
2023-08-17T00:15:08.269Z,17.60
2023-08-17T00:17:36.313Z,17.50
2023-08-17T00:20:06.203Z,17.50
2023-08-17T00:22:34.533Z,17.50
2023-08-17T00:25:05.810Z,17.50
2023-08-17T00:27:34.455Z,17.50
2023-08-17T00:30:24.730Z,17.40
2023-08-17T00:32:59.203Z,17.50
2023-08-17T00:36:02.546Z,17.40
2023-08-17T00:39:16.416Z,17.40
2023-08-17T00:42:50.769Z,17.40
2023-08-17T00:46:02.538Z,17.30
2023-08-17T00:49:03.740Z,17.30
2023-08-17T00:55:02.932Z,17.40
2023-08-17T00:58:03.967Z,17.40
2023-08-17T01:01:25.531Z,17.40
2023-08-17T01:07:29.662Z,17.40
2023-08-17T01:10:26.908Z,17.40
2023-08-17T01:13:35.525Z,17.40
2023-08-17T01:17:02.822Z,17.50
2023-08-17T01:20:10.489Z,17.50
2023-08-17T01:23:26.825Z,17.50
2023-08-17T01:26:32.574Z,17.50
2023-08-17T01:33:09.033Z,17.50
2023-08-17T01:36:14.238Z,17.50
2023-08-17T01:42:23.731Z,17.50
2023-08-17T01:47:48.255Z,17.50
2023-08-17T01:50:38.023Z,17.50
2023-08-17T01:53:25.033Z,17.50
2023-08-17T01:56:18.549Z,17.50
2023-08-17T01:59:30.978Z,17.50
2023-08-17T02:02:36.435Z,17.60
2023-08-17T02:05:23.846Z,17.50
2023-08-17T02:08:10.497Z,17.50
2023-08-17T02:17:44.536Z,17.60
2023-08-17T02:24:33.873Z,17.60
2023-08-17T02:28:14.081Z,17.60
2023-08-17T02:33:48.056Z,17.60
2023-08-17T02:36:45.923Z,17.60
2023-08-17T02:39:49.172Z,17.60
2023-08-17T02:42:59.203Z,17.60
2023-08-17T02:48:43.659Z,17.50
2023-08-17T02:51:40.067Z,17.40
2023-08-17T02:54:47.484Z,17.40
2023-08-17T02:57:42.303Z,17.40
2023-08-17T03:03:46.612Z,17.30
2023-08-17T03:06:20.413Z,17.20
2023-08-17T03:12:14.695Z,17.20
2023-08-17T03:15:24.654Z,17.20
2023-08-17T03:18:29.424Z,17.20
2023-08-17T03:30:54.174Z,17.20
2023-08-17T03:36:56.768Z,17.20
2023-08-17T03:42:32.304Z,17.10
2023-08-17T03:48:24.863Z,17.10
2023-08-17T03:51:03.202Z,17.10
2023-08-17T03:53:47.316Z,17.10
2023-08-17T03:56:32.458Z,17.10
2023-08-17T03:59:42.939Z,17.10
2023-08-17T04:02:51.969Z,17.10
2023-08-17T04:05:35.827Z,17.10
2023-08-17T04:08:32.661Z,17.00
2023-08-17T04:14:10.944Z,17.00
2023-08-17T04:22:23.227Z,17.00
2023-08-17T04:24:51.559Z,17.10
2023-08-17T04:27:20.918Z,17.10
2023-08-17T04:29:48.934Z,17.10
2023-08-17T04:32:17.649Z,17.10
2023-08-17T04:34:45.673Z,17.10
2023-08-17T04:37:13.706Z,17.10
2023-08-17T04:39:42.015Z,17.10
2023-08-17T04:42:10.034Z,17.20
2023-08-17T04:44:39.365Z,17.20
2023-08-17T04:47:07.468Z,17.10
2023-08-17T04:49:35.465Z,17.10
2023-08-17T04:52:03.651Z,17.10
2023-08-17T04:54:31.620Z,17.30
2023-08-17T04:56:59.779Z,17.10
2023-08-17T04:59:27.737Z,17.20
2023-08-17T05:01:57.024Z,17.20
2023-08-17T05:04:25.116Z,17.10
2023-08-17T05:06:53.030Z,17.10
2023-08-17T05:09:21.313Z,17.10
2023-08-17T05:11:49.309Z,17.10
2023-08-17T05:14:17.244Z,17.20
2023-08-17T05:16:45.182Z,17.20
2023-08-17T05:19:14.550Z,17.20
2023-08-17T05:21:42.547Z,17.30
2023-08-17T05:24:10.573Z,17.20
2023-08-17T05:26:39.104Z,17.30
2023-08-17T05:29:07.060Z,17.30
2023-08-17T05:31:35.056Z,17.30
2023-08-17T05:34:03.012Z,17.40
2023-08-17T05:36:32.469Z,17.30
2023-08-17T05:39:00.456Z,17.50
2023-08-17T05:41:28.514Z,17.40
2023-08-17T05:43:56.556Z,17.40
2023-08-17T05:46:24.616Z,17.40
2023-08-17T05:48:52.689Z,17.40
2023-08-17T05:51:20.622Z,17.40
2023-08-17T05:53:49.967Z,17.40
2023-08-17T05:56:18.050Z,17.50
2023-08-17T05:58:46.140Z,17.50
2023-08-17T06:01:14.237Z,17.80
2023-08-17T06:03:42.300Z,17.60
2023-08-17T06:06:11.929Z,17.60
2023-08-17T06:08:39.917Z,17.60
2023-08-17T06:11:09.229Z,17.60
2023-08-17T06:13:37.234Z,17.60
2023-08-17T06:16:05.385Z,17.60
2023-08-17T06:18:33.403Z,17.60
2023-08-17T06:21:01.402Z,17.60
2023-08-17T06:23:29.542Z,17.60
2023-08-17T06:25:59.997Z,17.60
2023-08-17T06:28:29.561Z,17.60
2023-08-17T06:30:58.299Z,17.50
2023-08-17T06:33:26.534Z,17.50
2023-08-17T06:35:54.549Z,17.50
2023-08-17T06:38:22.654Z,17.50
2023-08-17T06:40:53.254Z,17.50
2023-08-17T06:43:21.322Z,17.50
2023-08-17T06:45:50.732Z,17.50
2023-08-17T06:48:18.892Z,17.50
2023-08-17T06:50:46.947Z,17.60
2023-08-17T06:53:15.214Z,17.70
2023-08-17T06:55:43.328Z,17.80
2023-08-17T06:58:11.454Z,17.80
2023-08-17T07:00:41.709Z,17.80
2023-08-17T07:03:11.206Z,17.80
2023-08-17T07:05:39.480Z,17.80
2023-08-17T07:08:08.498Z,17.80
2023-08-17T07:10:36.716Z,17.90
2023-08-17T07:13:05.154Z,17.90
2023-08-17T07:15:33.540Z,18.00
2023-08-17T07:18:01.725Z,18.00
2023-08-17T07:20:31.364Z,18.10
2023-08-17T07:22:59.509Z,18.10
2023-08-17T07:25:27.789Z,18.20
2023-08-17T07:27:55.885Z,18.30
2023-08-17T07:30:24.157Z,18.30
2023-08-17T07:32:52.330Z,18.40
2023-08-17T07:35:20.378Z,18.50
2023-08-17T07:37:59.585Z,18.50
2023-08-17T07:40:32.090Z,18.60
2023-08-17T07:43:00.257Z,18.70
2023-08-17T07:45:28.411Z,18.90
2023-08-17T07:47:56.524Z,19.10
2023-08-17T07:50:24.668Z,19.40
2023-08-17T07:52:54.216Z,19.60
2023-08-17T07:55:22.367Z,19.70
2023-08-17T07:57:50.481Z,19.70
2023-08-17T08:00:19.263Z,19.80
2023-08-17T08:02:48.063Z,19.90
2023-08-17T08:05:16.357Z,19.90
2023-08-17T08:07:44.416Z,19.90
2023-08-17T08:10:13.888Z,19.90
2023-08-17T08:12:41.848Z,19.80
2023-08-17T08:15:10.843Z,19.70
2023-08-17T08:17:39.077Z,19.70
2023-08-17T08:20:08.445Z,19.70
2023-08-17T08:22:36.450Z,19.60
2023-08-17T08:25:04.784Z,19.70
2023-08-17T08:27:34.072Z,19.70
2023-08-17T08:30:02.004Z,19.50
2023-08-17T08:32:30.986Z,19.40
2023-08-17T08:34:59.091Z,19.40
2023-08-17T08:37:27.521Z,19.40
2023-08-17T08:39:59.046Z,19.40
2023-08-17T08:42:27.575Z,19.40
2023-08-17T08:44:57.174Z,19.40
2023-08-17T08:47:27.237Z,19.30
2023-08-17T08:50:03.728Z,19.30
2023-08-17T08:52:36.215Z,19.30
2023-08-17T08:55:12.490Z,19.30
2023-08-17T08:57:41.232Z,19.30
2023-08-17T09:00:13.495Z,19.20
2023-08-17T09:02:41.831Z,19.30
2023-08-17T09:05:12.244Z,19.20
2023-08-17T09:07:40.582Z,19.10
2023-08-17T09:10:10.182Z,19.10
2023-08-17T09:12:40.902Z,19.00
2023-08-17T09:15:11.714Z,19.40
2023-08-17T09:17:40.304Z,19.00
2023-08-17T09:20:10.524Z,18.90
2023-08-17T09:22:43.438Z,18.90
2023-08-17T09:25:12.500Z,18.90
2023-08-17T09:27:42.404Z,18.90
2023-08-17T09:30:13.622Z,18.90
2023-08-17T09:32:43.692Z,18.90
2023-08-17T09:35:11.833Z,18.90
2023-08-17T09:37:40.851Z,18.90
2023-08-17T09:40:09.897Z,18.90
2023-08-17T09:42:37.970Z,18.90
2023-08-17T09:45:07.203Z,18.90
2023-08-17T09:47:37.726Z,18.90
2023-08-17T09:50:08.399Z,19.00
2023-08-17T09:52:41.572Z,19.00
2023-08-17T09:55:11.921Z,19.00
2023-08-17T09:57:40.939Z,19.00
2023-08-17T10:00:11.050Z,19.00
2023-08-17T10:02:40.617Z,19.00
2023-08-17T10:05:12.177Z,19.00
2023-08-17T10:07:45.103Z,19.00
2023-08-17T10:10:14.048Z,19.00
2023-08-17T10:12:46.823Z,19.10
2023-08-17T10:15:20.537Z,19.20
2023-08-17T10:18:04.690Z,19.20
2023-08-17T10:20:36.143Z,19.20
2023-08-17T10:23:13.317Z,19.20
2023-08-17T10:25:43.254Z,19.40
2023-08-17T10:28:12.939Z,19.40
2023-08-17T10:30:41.619Z,19.50
2023-08-17T10:33:14.550Z,19.60
2023-08-17T10:35:43.293Z,19.60
2023-08-17T10:38:11.723Z,19.70
2023-08-17T10:40:42.024Z,19.70
2023-08-17T10:43:10.337Z,19.70
2023-08-17T10:45:40.051Z,19.90
2023-08-17T10:48:30.549Z,20.10
2023-08-17T10:51:07.886Z,20.30
2023-08-17T10:53:43.858Z,20.50
2023-08-17T10:56:16.508Z,20.60
2023-08-17T10:58:46.317Z,20.60
2023-08-17T11:01:15.374Z,20.60
2023-08-17T11:03:48.430Z,20.50
2023-08-17T11:06:19.134Z,20.50
2023-08-17T11:08:56.702Z,20.50
2023-08-17T11:11:25.664Z,20.40
2023-08-17T11:13:57.711Z,20.40
2023-08-17T11:16:26.090Z,20.40
2023-08-17T11:18:58.762Z,20.40
2023-08-17T11:21:27.266Z,20.40
2023-08-17T11:23:58.792Z,20.40
2023-08-17T11:26:27.316Z,20.40
2023-08-17T11:28:55.501Z,20.50
2023-08-17T11:31:23.706Z,20.70
2023-08-17T11:33:55.726Z,20.90
2023-08-17T11:36:25.576Z,21.00
2023-08-17T11:38:54.901Z,20.80
2023-08-17T11:41:23.195Z,20.70
2023-08-17T11:43:52.271Z,20.70
2023-08-17T11:46:20.873Z,20.60
2023-08-17T11:48:49.695Z,20.70
2023-08-17T11:51:32.183Z,20.80
2023-08-17T11:54:04.141Z,20.90
2023-08-17T11:56:32.224Z,20.90
2023-08-17T11:59:00.293Z,21.00
2023-08-17T12:01:28.373Z,21.00
2023-08-17T12:03:56.496Z,21.00
2023-08-17T12:06:24.664Z,21.00
2023-08-17T12:08:54.834Z,20.90
2023-08-17T12:11:26.561Z,20.80
2023-08-17T12:13:55.097Z,20.80
2023-08-17T12:16:24.533Z,20.90
2023-08-17T12:18:53.942Z,21.00
2023-08-17T12:21:23.372Z,21.00
2023-08-17T12:23:53.343Z,21.00
2023-08-17T12:26:21.680Z,21.00
2023-08-17T12:28:49.763Z,21.10
2023-08-17T12:31:23.834Z,21.10
2023-08-17T12:33:52.563Z,21.20
2023-08-17T12:36:22.637Z,21.10
2023-08-17T12:38:51.080Z,21.00
2023-08-17T12:41:20.848Z,21.00
2023-08-17T12:43:49.071Z,21.00
2023-08-17T12:46:17.192Z,21.00
2023-08-17T12:48:45.411Z,21.00
2023-08-17T12:51:14.221Z,20.90
2023-08-17T12:53:42.531Z,20.80
2023-08-17T12:56:10.807Z,20.70
2023-08-17T12:58:40.168Z,20.60
2023-08-17T13:01:08.280Z,20.50
2023-08-17T13:03:36.639Z,20.50
2023-08-17T13:06:05.021Z,20.40
2023-08-17T13:08:33.137Z,20.40
2023-08-17T13:11:02.352Z,20.30
2023-08-17T13:13:30.427Z,20.30
2023-08-17T13:16:00.920Z,20.30
2023-08-17T13:18:31.355Z,20.20
2023-08-17T13:20:59.403Z,20.20
2023-08-17T13:23:27.481Z,20.20
2023-08-17T13:25:55.761Z,20.30
2023-08-17T13:28:23.799Z,20.30
2023-08-17T13:30:51.930Z,20.40
2023-08-17T13:33:23.755Z,20.40
2023-08-17T13:35:52.286Z,20.50
2023-08-17T13:38:20.346Z,20.50
2023-08-17T13:40:48.386Z,20.50
2023-08-17T13:43:16.412Z,20.60
2023-08-17T13:45:44.449Z,20.70
2023-08-17T13:48:12.550Z,20.70
2023-08-17T13:50:42.246Z,20.80
2023-08-17T13:53:16.522Z,20.90
2023-08-17T13:55:44.613Z,21.10
2023-08-17T13:58:13.560Z,21.30
2023-08-17T14:00:41.595Z,21.40
2023-08-17T14:03:11.611Z,21.60
2023-08-17T14:05:41.006Z,21.60
2023-08-17T14:08:14.838Z,21.60
2023-08-17T14:10:44.556Z,22.00
2023-08-17T14:13:14.034Z,21.70
2023-08-17T14:15:42.064Z,21.70
2023-08-17T14:18:10.212Z,21.70
2023-08-17T14:20:38.298Z,21.60
2023-08-17T14:23:07.821Z,21.60
2023-08-17T14:25:35.897Z,21.50
2023-08-17T14:28:08.501Z,21.40
2023-08-17T14:30:36.564Z,21.40
2023-08-17T14:33:04.747Z,21.40
2023-08-17T14:35:32.897Z,21.50
2023-08-17T14:38:02.131Z,21.50
2023-08-17T14:40:31.659Z,21.50
2023-08-17T14:42:59.833Z,21.60
2023-08-17T14:45:27.949Z,21.60
2023-08-17T14:47:58.853Z,21.60
2023-08-17T14:50:29.057Z,21.60
2023-08-17T14:52:57.465Z,21.50
2023-08-17T14:55:25.685Z,21.60
2023-08-17T14:57:55.223Z,21.50
2023-08-17T15:00:23.348Z,21.50
2023-08-17T15:02:51.671Z,21.50
2023-08-17T15:05:20.049Z,21.50
2023-08-17T15:07:48.090Z,21.50
2023-08-17T15:10:16.279Z,21.50
2023-08-17T15:12:44.480Z,21.40
2023-08-17T15:15:13.875Z,21.40
2023-08-17T15:17:42.153Z,21.30
2023-08-17T15:20:11.441Z,21.20
2023-08-17T15:22:39.590Z,21.20
2023-08-17T15:25:08.145Z,21.10
2023-08-17T15:27:36.330Z,21.10
2023-08-17T15:30:04.782Z,21.10
2023-08-17T15:32:34.237Z,21.00
2023-08-17T15:35:02.390Z,21.00
2023-08-17T15:37:30.859Z,21.00
2023-08-17T15:39:59.555Z,21.00
2023-08-17T15:42:27.770Z,21.00
2023-08-17T15:44:56.072Z,21.00
2023-08-17T15:47:24.232Z,21.00
2023-08-17T15:49:53.610Z,21.00
2023-08-17T15:52:21.574Z,20.90
2023-08-17T15:54:49.598Z,20.80
2023-08-17T15:57:22.839Z,20.70
2023-08-17T15:59:51.601Z,20.50
2023-08-17T16:02:19.724Z,20.50
2023-08-17T16:04:48.377Z,20.40
2023-08-17T16:07:17.799Z,20.40
2023-08-17T16:09:45.747Z,20.40
2023-08-17T16:12:13.726Z,20.40
2023-08-17T16:14:41.752Z,20.30
2023-08-17T16:17:09.707Z,20.30
2023-08-17T16:19:37.698Z,20.30
2023-08-17T16:22:05.961Z,20.20
2023-08-17T16:24:35.365Z,20.20
2023-08-17T16:27:03.498Z,20.10
2023-08-17T16:29:31.730Z,20.10
2023-08-17T16:34:35.064Z,20.00
2023-08-17T16:37:03.232Z,19.90
2023-08-17T16:39:31.304Z,19.80
2023-08-17T16:42:00.768Z,19.80
2023-08-17T16:44:28.898Z,19.70
2023-08-17T16:46:57.071Z,19.70
2023-08-17T16:49:29.751Z,19.70
2023-08-17T16:51:58.530Z,19.60
2023-08-17T16:54:26.672Z,19.60
2023-08-17T16:56:54.816Z,19.60
2023-08-17T16:59:24.358Z,19.60
2023-08-17T17:01:53.716Z,19.60
2023-08-17T17:04:21.757Z,19.50
2023-08-17T17:06:51.500Z,19.50
2023-08-17T17:09:21.301Z,19.50
2023-08-17T17:11:49.408Z,19.50
2023-08-17T17:14:17.563Z,19.40
2023-08-17T17:16:47.047Z,19.40
2023-08-17T17:19:15.141Z,19.40
2023-08-17T17:21:43.610Z,19.40
2023-08-17T17:24:11.739Z,19.40
2023-08-17T17:26:40.098Z,19.30
2023-08-17T17:29:08.372Z,19.30
2023-08-17T17:31:36.464Z,19.30
2023-08-17T17:34:06.297Z,19.30
2023-08-17T17:36:34.955Z,19.30
2023-08-17T17:39:03.321Z,19.20
2023-08-17T17:41:31.393Z,19.20
2023-08-17T17:43:59.682Z,19.10
2023-08-17T17:46:27.790Z,19.10
2023-08-17T17:48:55.856Z,19.10
2023-08-17T17:51:25.221Z,19.00
2023-08-17T17:53:53.338Z,19.00
2023-08-17T17:56:37.462Z,19.00
2023-08-17T17:59:05.708Z,19.00
2023-08-17T18:01:34.005Z,19.00
2023-08-17T18:04:02.135Z,19.00
2023-08-17T18:06:31.570Z,19.00
2023-08-17T18:08:59.781Z,19.00
2023-08-17T18:11:28.012Z,18.90
2023-08-17T18:13:56.237Z,18.90
2023-08-17T18:16:24.715Z,18.90
2023-08-17T18:18:53.742Z,18.90
2023-08-17T18:21:21.972Z,18.90
2023-08-17T18:23:51.646Z,18.90
2023-08-17T18:26:19.793Z,18.90
2023-08-17T18:28:48.059Z,18.80
2023-08-17T18:31:16.427Z,18.80
2023-08-17T18:33:44.601Z,18.80
2023-08-17T18:36:12.721Z,18.70
2023-08-17T18:38:40.923Z,18.70
2023-08-17T18:41:11.312Z,18.70
2023-08-17T18:43:39.680Z,18.60
2023-08-17T18:46:08.780Z,18.60
2023-08-17T18:48:36.962Z,18.60
2023-08-17T18:51:05.252Z,18.60
2023-08-17T18:53:33.392Z,18.60
2023-08-17T18:56:01.431Z,18.60
2023-08-17T18:58:30.856Z,18.60
2023-08-17T19:00:59.028Z,18.50
2023-08-17T19:03:27.565Z,18.50
2023-08-17T19:05:55.915Z,18.50
2023-08-17T19:08:24.142Z,18.50
2023-08-17T19:10:53.838Z,18.50
2023-08-17T19:13:23.471Z,18.50
2023-08-17T19:15:53.029Z,18.50
2023-08-17T19:18:21.211Z,18.50
2023-08-17T19:20:49.261Z,18.40
2023-08-17T19:23:17.390Z,18.40
2023-08-17T19:25:45.483Z,18.40
2023-08-17T19:28:13.764Z,18.40
2023-08-17T19:30:42.057Z,18.30
2023-08-17T19:33:11.686Z,18.30
2023-08-17T19:35:39.919Z,18.40
2023-08-17T19:38:08.229Z,18.40
2023-08-17T19:40:36.535Z,18.30
2023-08-17T19:43:04.958Z,18.30
2023-08-17T19:45:33.052Z,18.30
2023-08-17T19:48:01.179Z,18.30
2023-08-17T19:50:30.661Z,18.20
2023-08-17T19:52:58.670Z,18.20
2023-08-17T19:55:26.926Z,18.30
2023-08-17T19:57:54.965Z,18.10
2023-08-17T20:00:23.129Z,18.10
2023-08-17T20:02:51.428Z,18.00
2023-08-17T20:05:19.646Z,18.00
2023-08-17T20:07:49.154Z,18.00
2023-08-17T20:10:17.283Z,18.00
2023-08-17T20:12:45.519Z,18.00
2023-08-17T20:15:13.946Z,18.00
2023-08-17T20:17:42.182Z,18.00
2023-08-17T20:20:16.541Z,18.10
2023-08-17T20:22:44.712Z,18.00
2023-08-17T20:25:14.974Z,18.00
2023-08-17T20:27:43.767Z,18.00
2023-08-17T20:30:12.989Z,18.00
2023-08-17T20:32:41.250Z,18.00
2023-08-17T20:35:10.383Z,18.00
2023-08-17T20:37:39.561Z,18.00
2023-08-17T20:40:09.303Z,18.00
2023-08-17T20:42:38.915Z,18.00
2023-08-17T20:45:07.882Z,18.00
2023-08-17T20:47:36.026Z,18.00
2023-08-17T20:50:05.431Z,18.00
2023-08-17T20:52:33.495Z,18.00
2023-08-17T20:55:03.542Z,18.00
2023-08-17T20:57:31.826Z,18.00
2023-08-17T21:00:01.506Z,18.00
2023-08-17T21:02:30.186Z,17.90
2023-08-17T21:04:58.347Z,18.00
2023-08-17T21:07:29.198Z,18.00
2023-08-17T21:09:58.809Z,18.00
2023-08-17T21:12:28.583Z,18.00
2023-08-17T21:14:58.294Z,18.00
2023-08-17T21:17:28.950Z,17.90
2023-08-17T21:19:58.079Z,17.90
2023-08-17T21:22:27.448Z,17.90
2023-08-17T21:24:55.538Z,17.90
2023-08-17T21:27:23.681Z,17.90
2023-08-17T21:29:52.456Z,17.90
2023-08-17T21:32:20.734Z,17.90
2023-08-17T21:34:50.108Z,17.90
2023-08-17T21:37:27.338Z,17.80
2023-08-17T21:39:56.512Z,17.80
2023-08-17T21:42:24.567Z,17.70
2023-08-17T21:44:56.455Z,17.70
2023-08-17T21:47:24.417Z,17.70
2023-08-17T21:49:53.905Z,17.80
2023-08-17T21:52:22.060Z,17.80
2023-08-17T21:54:51.818Z,17.80
2023-08-17T21:57:22.711Z,17.80
2023-08-17T21:59:50.828Z,17.70
2023-08-17T22:02:18.903Z,17.70
2023-08-17T22:04:47.019Z,17.80
2023-08-17T22:07:16.480Z,17.80
2023-08-17T22:09:46.988Z,17.80
2023-08-17T22:12:15.022Z,17.80
2023-08-17T22:14:42.995Z,17.80
2023-08-17T22:17:11.141Z,17.80
2023-08-17T22:19:39.205Z,17.80
2023-08-17T22:22:07.335Z,17.70
2023-08-17T22:27:14.572Z,17.70
2023-08-17T22:29:42.666Z,17.60
2023-08-17T22:32:10.658Z,17.60
2023-08-17T22:34:38.707Z,17.60
2023-08-17T22:37:07.488Z,17.60
2023-08-17T22:39:37.041Z,17.60
2023-08-17T22:42:05.511Z,17.90
2023-08-17T22:44:33.551Z,17.60
2023-08-17T22:47:01.648Z,17.60
2023-08-17T22:49:29.672Z,17.60
2023-08-17T22:51:57.904Z,17.50
2023-08-17T22:54:25.909Z,17.60
2023-08-17T22:56:56.129Z,17.60
2023-08-17T22:59:24.444Z,17.60
2023-08-17T23:01:52.561Z,17.60
2023-08-17T23:04:20.597Z,17.60
2023-08-17T23:06:48.720Z,17.60
2023-08-17T23:09:17.092Z,17.60
2023-08-17T23:11:45.191Z,17.50
2023-08-17T23:14:14.953Z,17.50
2023-08-17T23:16:42.975Z,17.60
2023-08-17T23:19:11.069Z,18.10
2023-08-17T23:21:39.223Z,17.50
2023-08-17T23:24:07.571Z,17.50
2023-08-17T23:26:35.702Z,17.50
2023-08-17T23:29:03.854Z,17.50
2023-08-17T23:31:33.589Z,18.10
2023-08-17T23:34:01.653Z,17.50
2023-08-17T23:36:30.096Z,17.50
2023-08-17T23:38:58.177Z,17.50
2023-08-17T23:41:26.432Z,17.50
2023-08-17T23:43:54.405Z,17.50
2023-08-17T23:46:22.379Z,17.50
2023-08-17T23:48:51.760Z,17.50
2023-08-17T23:51:19.801Z,17.60
2023-08-17T23:53:47.825Z,17.40
2023-08-17T23:56:15.827Z,17.60
2023-08-17T23:58:44.045Z,17.60
